createdAt,value
2023-02-28T00:00:10.962Z,4.20
2023-02-28T00:02:13.586Z,4.53
2023-02-28T00:04:16.215Z,3.70
2023-02-28T00:06:19.155Z,4.10
2023-02-28T00:08:21.925Z,3.45
2023-02-28T00:10:27.463Z,3.88
2023-02-28T00:12:30.013Z,3.75
2023-02-28T00:14:32.687Z,3.40
2023-02-28T00:16:36.634Z,4.30
2023-02-28T00:18:39.783Z,4.60
2023-02-28T00:20:42.350Z,3.80
2023-02-28T00:22:47.555Z,3.40
2023-02-28T00:24:50.152Z,4.07
2023-02-28T00:26:52.743Z,3.90
2023-02-28T00:28:55.270Z,4.07
2023-02-28T00:30:58.463Z,3.67
2023-02-28T00:33:02.523Z,3.75
2023-02-28T00:35:06.350Z,4.07
2023-02-28T00:37:13.373Z,4.13
2023-02-28T00:39:15.901Z,3.47
2023-02-28T00:41:18.486Z,3.88
2023-02-28T00:43:21.019Z,4.38
2023-02-28T00:45:23.548Z,4.05
2023-02-28T00:47:26.239Z,4.10
2023-02-28T00:49:30.323Z,3.90
2023-02-28T00:51:32.903Z,3.92
2023-02-28T00:53:35.642Z,4.18
2023-02-28T00:55:38.196Z,3.85
2023-02-28T00:57:40.903Z,4.05
2023-02-28T00:59:43.472Z,4.00
2023-02-28T01:01:48.312Z,3.78
2023-02-28T01:03:50.914Z,3.65
2023-02-28T01:05:54.984Z,3.92
2023-02-28T01:07:57.512Z,4.25
2023-02-28T01:10:00.077Z,3.65
2023-02-28T01:12:02.724Z,4.20
2023-02-28T01:14:05.929Z,3.53
2023-02-28T01:16:09.131Z,4.00
2023-02-28T01:18:11.686Z,3.90
2023-02-28T01:20:17.461Z,3.90
2023-02-28T01:22:21.320Z,3.83
2023-02-28T01:24:23.883Z,3.83
2023-02-28T01:26:26.964Z,4.45
2023-02-28T01:28:30.795Z,3.67
2023-02-28T01:30:33.734Z,3.78
2023-02-28T01:32:36.290Z,3.92
2023-02-28T01:34:38.893Z,3.70
2023-02-28T01:36:41.448Z,3.75
2023-02-28T01:38:45.838Z,3.80
2023-02-28T01:40:48.406Z,3.92
2023-02-28T01:42:51.028Z,3.95
2023-02-28T01:45:08.552Z,3.75
2023-02-28T01:47:11.168Z,3.97
2023-02-28T01:49:17.259Z,4.03
2023-02-28T01:51:24.119Z,4.50
2023-02-28T01:53:31.846Z,4.20
2023-02-28T01:55:36.507Z,3.42
2023-02-28T01:57:43.682Z,3.60
2023-02-28T01:59:51.840Z,3.85
2023-02-28T02:01:55.326Z,3.90
2023-02-28T02:04:03.096Z,3.42
2023-02-28T02:06:06.301Z,3.95
2023-02-28T02:08:11.463Z,3.85
2023-02-28T02:10:16.546Z,3.88
2023-02-28T02:12:31.507Z,4.15
2023-02-28T02:14:50.244Z,4.53
2023-02-28T02:17:06.811Z,4.20
2023-02-28T02:19:27.500Z,4.13
2023-02-28T02:21:55.418Z,4.47
2023-02-28T02:24:24.569Z,3.88
2023-02-28T02:26:55.653Z,3.80
2023-02-28T02:29:15.406Z,4.63
2023-02-28T02:31:39.005Z,4.05
2023-02-28T02:34:18.787Z,4.20
2023-02-28T02:36:27.440Z,3.83
2023-02-28T02:38:35.241Z,4.00
2023-02-28T02:40:44.539Z,4.32
2023-02-28T02:42:52.975Z,4.07
2023-02-28T02:45:02.912Z,4.18
2023-02-28T02:47:09.997Z,4.45
2023-02-28T02:49:18.478Z,4.05
2023-02-28T02:51:24.884Z,3.80
2023-02-28T02:53:32.206Z,4.60
2023-02-28T02:55:39.708Z,3.78
2023-02-28T02:57:47.956Z,4.03
2023-02-28T02:59:53.699Z,4.18
2023-02-28T03:01:59.967Z,4.35
2023-02-28T03:04:06.166Z,3.95
2023-02-28T03:06:09.338Z,3.97
2023-02-28T03:08:13.318Z,4.22
2023-02-28T03:10:37.822Z,4.47
2023-02-28T03:12:47.264Z,4.00
2023-02-28T03:15:01.045Z,4.13
2023-02-28T03:17:30.086Z,4.35
2023-02-28T03:19:45.061Z,5.03
2023-02-28T03:21:57.553Z,3.72
2023-02-28T03:24:08.850Z,4.45
2023-02-28T03:26:21.426Z,4.22
2023-02-28T03:28:33.863Z,4.60
2023-02-28T03:30:43.541Z,4.50
2023-02-28T03:32:56.056Z,4.60
2023-02-28T03:35:05.796Z,4.57
2023-02-28T03:37:14.309Z,4.15
2023-02-28T03:39:22.582Z,5.00
2023-02-28T03:41:29.855Z,4.60
2023-02-28T03:43:36.988Z,4.97
2023-02-28T03:45:41.628Z,4.78
2023-02-28T03:47:48.792Z,4.18
2023-02-28T03:49:55.919Z,4.60
2023-02-28T03:52:03.957Z,4.90
2023-02-28T03:54:14.805Z,5.00
2023-02-28T03:56:21.978Z,4.82
2023-02-28T03:58:32.014Z,4.50
2023-02-28T04:00:37.657Z,4.47
2023-02-28T04:02:41.440Z,4.80
2023-02-28T04:04:49.405Z,4.80
2023-02-28T04:06:53.582Z,4.82
2023-02-28T04:08:56.712Z,4.20
2023-02-28T04:11:02.797Z,5.25
2023-02-28T04:13:06.680Z,4.60
2023-02-28T04:15:11.485Z,4.63
2023-02-28T04:17:14.071Z,5.53
2023-02-28T04:19:16.935Z,5.00
2023-02-28T04:21:22.060Z,4.93
2023-02-28T04:23:24.665Z,4.75
2023-02-28T04:25:27.242Z,5.72
2023-02-28T04:27:32.432Z,4.88
2023-02-28T04:29:36.927Z,5.78
2023-02-28T04:31:39.828Z,5.13
2023-02-28T04:33:42.403Z,5.32
2023-02-28T04:35:45.054Z,4.82
2023-02-28T04:37:47.615Z,4.57
2023-02-28T04:39:50.155Z,5.78
2023-02-28T04:41:52.815Z,5.10
2023-02-28T04:43:56.881Z,5.35
2023-02-28T04:46:04.143Z,5.28
2023-02-28T04:48:06.796Z,5.55
2023-02-28T04:50:10.688Z,5.47
2023-02-28T04:52:14.245Z,5.55
2023-02-28T04:54:17.135Z,6.13
2023-02-28T04:56:20.545Z,5.40
2023-02-28T04:58:24.260Z,5.45
2023-02-28T05:00:26.907Z,5.22
2023-02-28T05:02:30.807Z,5.53
2023-02-28T05:04:35.116Z,6.07
2023-02-28T05:06:37.699Z,5.50
2023-02-28T05:08:40.445Z,5.82
2023-02-28T05:10:43.015Z,5.22
2023-02-28T05:12:45.550Z,5.97
2023-02-28T05:14:48.128Z,5.78
2023-02-28T05:16:50.724Z,6.22
2023-02-28T05:18:55.360Z,5.90
2023-02-28T05:20:57.982Z,6.53
2023-02-28T05:23:02.142Z,6.28
2023-02-28T05:25:05.703Z,5.72
2023-02-28T05:27:08.262Z,6.30
2023-02-28T05:29:11.674Z,5.93
2023-02-28T05:31:14.884Z,6.10
2023-02-28T05:33:17.485Z,5.65
2023-02-28T05:35:21.497Z,6.47
2023-02-28T05:37:24.101Z,6.13
2023-02-28T05:39:26.656Z,6.35
2023-02-28T05:41:29.547Z,6.47
2023-02-28T05:43:32.354Z,6.10
2023-02-28T05:45:34.961Z,6.47
2023-02-28T05:47:37.925Z,6.65
2023-02-28T05:49:40.526Z,6.50
2023-02-28T05:51:44.603Z,6.78
2023-02-28T05:53:48.018Z,7.15
2023-02-28T05:55:50.613Z,6.53
2023-02-28T05:57:55.502Z,6.55
2023-02-28T05:59:58.066Z,7.18
2023-02-28T06:02:00.834Z,6.88
2023-02-28T06:04:05.169Z,7.85
2023-02-28T06:06:08.147Z,7.35
2023-02-28T06:08:12.059Z,6.68
2023-02-28T06:10:15.949Z,6.90
2023-02-28T06:12:18.529Z,7.07
2023-02-28T06:14:22.390Z,6.80
2023-02-28T06:16:25.449Z,7.03
2023-02-28T06:18:28.114Z,6.72
2023-02-28T06:20:31.014Z,7.68
2023-02-28T06:22:33.593Z,7.57
2023-02-28T06:24:37.657Z,7.35
2023-02-28T06:26:40.351Z,7.05
2023-02-28T06:28:42.933Z,8.48
2023-02-28T06:30:46.571Z,7.45
2023-02-28T06:32:50.496Z,7.43
2023-02-28T06:34:53.848Z,7.28
2023-02-28T06:36:56.384Z,7.28
2023-02-28T06:38:58.956Z,7.50
2023-02-28T06:41:03.517Z,7.65
2023-02-28T06:43:06.102Z,7.68
2023-02-28T06:45:10.646Z,8.38
2023-02-28T06:47:13.227Z,8.05
2023-02-28T06:49:15.937Z,7.63
2023-02-28T06:51:21.234Z,7.60
2023-02-28T06:53:23.787Z,8.45
2023-02-28T06:55:26.373Z,7.80
2023-02-28T06:57:32.835Z,8.15
2023-02-28T06:59:37.448Z,8.90
2023-02-28T07:01:40.122Z,7.80
2023-02-28T07:03:42.803Z,8.20
2023-02-28T07:05:45.430Z,8.25
2023-02-28T07:07:48.225Z,8.23
2023-02-28T07:09:50.852Z,8.02
2023-02-28T07:11:53.461Z,7.60
2023-02-28T07:13:58.267Z,8.35
2023-02-28T07:16:02.956Z,8.25
2023-02-28T07:18:05.762Z,8.00
2023-02-28T07:20:09.707Z,7.43
2023-02-28T07:22:13.730Z,9.27
2023-02-28T07:24:18.988Z,8.02
2023-02-28T07:26:22.331Z,8.73
2023-02-28T07:28:25.230Z,8.13
2023-02-28T07:30:29.169Z,8.85
2023-02-28T07:32:31.729Z,8.85
2023-02-28T07:34:34.308Z,9.00
2023-02-28T07:36:36.875Z,8.35
2023-02-28T07:38:39.658Z,8.82
2023-02-28T07:40:42.523Z,8.68
2023-02-28T07:42:45.393Z,8.55
2023-02-28T07:44:48.442Z,9.15
2023-02-28T07:46:52.357Z,10.50
2023-02-28T07:48:56.038Z,10.20
2023-02-28T07:50:58.752Z,11.07
2023-02-28T07:53:01.601Z,11.02
2023-02-28T07:55:05.517Z,10.40
2023-02-28T07:57:08.119Z,10.18
2023-02-28T07:59:10.998Z,10.30
2023-02-28T08:01:14.148Z,9.93
2023-02-28T08:03:19.044Z,10.02
2023-02-28T08:05:22.399Z,10.93
2023-02-28T08:07:25.050Z,10.27
2023-02-28T08:09:28.101Z,10.13
2023-02-28T08:11:30.924Z,11.18
2023-02-28T08:13:34.005Z,10.57
2023-02-28T08:15:37.306Z,11.00
2023-02-28T08:17:40.061Z,10.10
2023-02-28T08:19:44.012Z,9.70
2023-02-28T08:21:46.586Z,10.43
2023-02-28T08:23:49.932Z,11.68
2023-02-28T08:25:55.512Z,11.25
2023-02-28T08:27:58.090Z,10.38
2023-02-28T08:30:00.713Z,11.18
2023-02-28T08:32:03.441Z,10.50
2023-02-28T08:34:07.810Z,10.68
2023-02-28T08:36:12.129Z,11.40
2023-02-28T08:38:14.710Z,10.27
2023-02-28T08:40:19.209Z,11.10
2023-02-28T08:42:22.104Z,10.82
2023-02-28T08:44:24.681Z,11.32
2023-02-28T08:46:27.279Z,11.32
2023-02-28T08:48:32.524Z,11.05
2023-02-28T08:50:35.084Z,11.18
2023-02-28T08:52:39.446Z,11.00
2023-02-28T08:54:42.139Z,11.15
2023-02-28T08:56:44.653Z,11.00
2023-02-28T08:58:48.799Z,10.60
2023-02-28T09:00:52.435Z,10.85
2023-02-28T09:02:55.718Z,10.50
2023-02-28T09:04:58.263Z,10.32
2023-02-28T09:07:00.840Z,9.93
2023-02-28T09:09:07.046Z,11.73
2023-02-28T09:11:09.729Z,12.82
2023-02-28T09:13:12.297Z,10.48
2023-02-28T09:15:15.175Z,11.32
2023-02-28T09:17:17.959Z,11.10
2023-02-28T09:19:20.564Z,11.15
2023-02-28T09:21:23.125Z,11.38
2023-02-28T09:23:26.571Z,11.82
2023-02-28T09:25:30.475Z,11.02
2023-02-28T09:27:33.089Z,10.90
2023-02-28T09:29:37.074Z,11.52
2023-02-28T09:31:39.658Z,10.90
2023-02-28T09:33:42.282Z,10.75
2023-02-28T09:35:45.291Z,11.60
2023-02-28T09:37:47.889Z,11.00
2023-02-28T09:39:52.776Z,11.02
2023-02-28T09:41:58.731Z,11.65
2023-02-28T09:44:05.770Z,11.50
2023-02-28T09:46:16.266Z,11.75
2023-02-28T09:48:23.713Z,10.95
2023-02-28T09:50:36.022Z,11.18
2023-02-28T09:52:38.704Z,10.88
2023-02-28T09:54:41.519Z,10.75
2023-02-28T09:56:44.445Z,11.73
2023-02-28T09:58:54.053Z,11.63
2023-02-28T10:01:05.603Z,11.93
2023-02-28T10:03:30.583Z,11.48
2023-02-28T10:05:38.574Z,11.73
2023-02-28T10:08:01.076Z,11.18
2023-02-28T10:10:06.935Z,12.07
2023-02-28T10:12:13.490Z,12.15
2023-02-28T10:14:21.400Z,12.23
2023-02-28T10:16:29.833Z,11.75
2023-02-28T10:18:42.504Z,11.27
2023-02-28T10:20:45.977Z,11.27
2023-02-28T10:22:58.947Z,11.52
2023-02-28T10:25:05.986Z,10.73
2023-02-28T10:27:16.352Z,11.48
2023-02-28T10:29:20.283Z,12.20
2023-02-28T10:31:24.753Z,11.98
2023-02-28T10:33:31.983Z,12.57
2023-02-28T10:35:35.167Z,11.75
2023-02-28T10:37:40.015Z,11.93
2023-02-28T10:39:44.509Z,11.30
2023-02-28T10:41:47.120Z,11.77
2023-02-28T10:43:50.393Z,11.95
2023-02-28T10:46:00.944Z,11.27
2023-02-28T10:48:05.860Z,11.52
2023-02-28T10:50:38.924Z,11.80
2023-02-28T10:52:42.224Z,11.30
2023-02-28T10:54:44.823Z,10.88
2023-02-28T10:56:47.455Z,10.68
2023-02-28T10:58:54.624Z,12.23
2023-02-28T11:01:00.193Z,11.20
2023-02-28T11:03:02.825Z,11.05
2023-02-28T11:05:25.737Z,10.95
2023-02-28T11:07:37.378Z,12.57
2023-02-28T11:09:48.488Z,11.43
2023-02-28T11:11:51.960Z,11.63
2023-02-28T11:13:56.796Z,12.05
2023-02-28T11:16:03.080Z,10.85
2023-02-28T11:18:25.025Z,11.23
2023-02-28T11:20:30.481Z,10.85
2023-02-28T11:22:36.942Z,11.40
2023-02-28T11:24:45.484Z,11.52
2023-02-28T11:26:49.764Z,11.05
2023-02-28T11:29:10.949Z,11.57
2023-02-28T11:31:23.278Z,10.73
2023-02-28T11:33:29.703Z,11.55
2023-02-28T11:35:36.902Z,11.00
2023-02-28T11:37:40.678Z,11.55
2023-02-28T11:39:43.966Z,11.45
2023-02-28T11:42:06.773Z,11.82
2023-02-28T11:44:33.171Z,12.23
2023-02-28T11:46:43.823Z,11.02
2023-02-28T11:48:57.148Z,11.82
2023-02-28T11:51:08.814Z,11.25
2023-02-28T11:53:21.263Z,11.55
2023-02-28T11:55:29.358Z,11.52
2023-02-28T11:57:40.932Z,11.43
2023-02-28T11:59:56.954Z,11.90
2023-02-28T12:02:22.534Z,11.38
2023-02-28T12:04:36.040Z,11.10
2023-02-28T12:06:47.280Z,12.15
2023-02-28T12:09:00.189Z,11.77
2023-02-28T12:11:13.339Z,11.15
2023-02-28T12:13:24.077Z,11.73
2023-02-28T12:15:40.072Z,11.43
2023-02-28T12:17:58.611Z,12.02
2023-02-28T12:20:11.053Z,12.07
2023-02-28T12:22:30.084Z,11.98
2023-02-28T12:24:50.732Z,11.32
2023-02-28T12:26:56.022Z,12.27
2023-02-28T12:29:07.200Z,11.73
2023-02-28T12:31:20.106Z,12.55
2023-02-28T12:33:30.598Z,11.73
2023-02-28T12:35:37.511Z,12.68
2023-02-28T12:37:46.860Z,11.55
2023-02-28T12:39:54.471Z,11.45
2023-02-28T12:42:03.602Z,11.98
2023-02-28T12:44:12.518Z,11.15
2023-02-28T12:46:19.258Z,12.00
2023-02-28T12:48:28.071Z,12.07
2023-02-28T12:50:32.816Z,11.98
2023-02-28T12:52:43.801Z,12.00
2023-02-28T12:54:52.792Z,13.10
2023-02-28T12:57:05.803Z,11.07
2023-02-28T12:59:18.281Z,11.35
2023-02-28T13:01:45.480Z,10.93
2023-02-28T13:04:16.175Z,11.82
2023-02-28T13:06:40.605Z,11.50
2023-02-28T13:09:03.497Z,11.80
2023-02-28T13:11:13.094Z,11.43
2023-02-28T13:13:25.430Z,11.75
2023-02-28T13:15:30.201Z,11.25
2023-02-28T13:17:33.442Z,11.55
2023-02-28T13:19:41.112Z,11.20
2023-02-28T13:21:46.299Z,11.98
2023-02-28T13:24:01.115Z,11.57
2023-02-28T13:26:04.089Z,12.13
2023-02-28T13:28:12.558Z,12.52
2023-02-28T13:30:52.795Z,11.57
2023-02-28T13:33:29.828Z,11.63
2023-02-28T13:35:48.696Z,11.57
2023-02-28T13:37:52.726Z,10.07
2023-02-28T13:39:56.790Z,10.18
2023-02-28T13:42:25.613Z,10.65
2023-02-28T13:44:28.364Z,9.93
2023-02-28T13:46:31.914Z,11.15
2023-02-28T13:48:34.553Z,11.23
2023-02-28T13:50:39.375Z,10.93
2023-02-28T13:52:50.876Z,11.18
2023-02-28T13:55:17.921Z,11.50
2023-02-28T13:57:31.022Z,10.98
2023-02-28T13:59:41.841Z,11.13
2023-02-28T14:01:59.413Z,10.80
2023-02-28T14:04:23.705Z,11.20
2023-02-28T14:06:31.091Z,11.57
2023-02-28T14:08:35.894Z,10.82
2023-02-28T14:10:44.306Z,10.70
2023-02-28T14:12:58.789Z,10.70
2023-02-28T14:15:01.883Z,9.55
2023-02-28T14:17:06.106Z,10.10
2023-02-28T14:19:14.173Z,10.57
2023-02-28T14:21:26.353Z,10.98
2023-02-28T14:23:48.915Z,10.27
2023-02-28T14:26:07.646Z,10.05
2023-02-28T14:28:21.395Z,10.23
2023-02-28T14:30:42.272Z,9.02
2023-02-28T14:32:53.174Z,10.20
2023-02-28T14:35:05.243Z,9.32
2023-02-28T14:37:12.743Z,10.80
2023-02-28T14:39:19.952Z,10.48
2023-02-28T14:41:25.183Z,10.13
2023-02-28T14:43:29.685Z,10.10
2023-02-28T14:45:34.067Z,9.63
2023-02-28T14:47:38.206Z,9.70
2023-02-28T14:49:46.621Z,9.43
2023-02-28T14:51:51.380Z,9.93
2023-02-28T14:53:59.339Z,9.43
2023-02-28T14:56:03.539Z,9.68
2023-02-28T14:58:08.443Z,10.05
2023-02-28T15:00:16.204Z,11.25
2023-02-28T15:02:23.109Z,10.15
2023-02-28T15:04:29.726Z,10.20
2023-02-28T15:06:33.143Z,9.93
2023-02-28T15:08:37.247Z,9.73
2023-02-28T15:10:42.117Z,10.27
2023-02-28T15:12:51.523Z,10.75
2023-02-28T15:14:54.135Z,10.13
2023-02-28T15:17:01.832Z,11.52
2023-02-28T15:19:08.892Z,9.80
2023-02-28T15:21:16.711Z,10.05
2023-02-28T15:23:22.670Z,10.30
2023-02-28T15:25:26.462Z,9.88
2023-02-28T15:27:33.053Z,10.85
2023-02-28T15:29:46.916Z,10.35
2023-02-28T15:31:57.544Z,10.75
2023-02-28T15:34:06.480Z,10.17
2023-02-28T15:36:15.553Z,9.98
2023-02-28T15:38:23.558Z,9.88
2023-02-28T15:40:30.803Z,9.98
2023-02-28T15:42:33.445Z,10.23
2023-02-28T15:44:38.217Z,10.35
2023-02-28T15:46:56.949Z,10.43
2023-02-28T15:48:59.600Z,9.32
2023-02-28T15:51:07.846Z,9.65
2023-02-28T15:53:15.783Z,9.93
2023-02-28T15:55:21.791Z,10.00
2023-02-28T15:57:27.272Z,10.18
2023-02-28T15:59:32.230Z,9.63
2023-02-28T16:01:40.386Z,10.50
2023-02-28T16:03:47.123Z,10.73
2023-02-28T16:06:23.619Z,9.85
2023-02-28T16:08:26.174Z,9.43
2023-02-28T16:10:30.421Z,10.57
2023-02-28T16:12:35.726Z,10.40
2023-02-28T16:14:39.660Z,10.70
2023-02-28T16:16:47.265Z,10.70
2023-02-28T16:18:50.436Z,9.95
2023-02-28T16:20:52.978Z,11.15
2023-02-28T16:22:56.247Z,11.32
2023-02-28T16:24:58.823Z,10.77
2023-02-28T16:27:02.107Z,11.50
2023-02-28T16:29:05.418Z,10.82
2023-02-28T16:31:11.841Z,10.80
2023-02-28T16:33:15.793Z,11.35
2023-02-28T16:35:18.884Z,10.05
2023-02-28T16:37:21.457Z,11.25
2023-02-28T16:39:24.040Z,10.70
2023-02-28T16:41:29.864Z,9.27
2023-02-28T16:43:33.313Z,11.70
2023-02-28T16:45:36.002Z,11.32
2023-02-28T16:47:38.578Z,11.60
2023-02-28T16:49:44.152Z,11.73
2023-02-28T16:51:46.749Z,10.85
2023-02-28T16:53:49.820Z,11.52
2023-02-28T16:55:52.673Z,11.95
2023-02-28T16:57:57.889Z,11.60
2023-02-28T17:00:00.532Z,12.50
2023-02-28T17:02:03.133Z,11.57
2023-02-28T17:04:05.871Z,12.75
2023-02-28T17:06:19.800Z,12.02
2023-02-28T17:08:22.424Z,11.40
2023-02-28T17:10:26.920Z,12.02
2023-02-28T17:12:29.486Z,11.75
2023-02-28T17:14:32.029Z,12.23
2023-02-28T17:16:37.469Z,11.38
2023-02-28T17:18:40.140Z,11.40
2023-02-28T17:20:43.305Z,12.13
2023-02-28T17:22:47.263Z,12.95
2023-02-28T17:24:49.833Z,12.10
2023-02-28T17:26:52.406Z,12.30
2023-02-28T17:28:56.751Z,11.40
2023-02-28T17:30:59.405Z,11.70
2023-02-28T17:33:02.122Z,12.32
2023-02-28T17:35:04.973Z,10.98
2023-02-28T17:37:07.566Z,12.20
2023-02-28T17:39:14.802Z,12.07
2023-02-28T17:41:20.695Z,11.52
2023-02-28T17:43:23.216Z,11.63
2023-02-28T17:45:25.887Z,11.82
2023-02-28T17:47:28.511Z,11.48
2023-02-28T17:49:31.132Z,12.18
2023-02-28T17:51:33.710Z,12.57
2023-02-28T17:53:36.275Z,12.60
2023-02-28T17:55:41.180Z,11.43
2023-02-28T17:57:44.115Z,12.40
2023-02-28T17:59:46.723Z,12.60
2023-02-28T18:01:49.330Z,12.18
2023-02-28T18:03:51.974Z,12.88
2023-02-28T18:05:54.519Z,11.65
2023-02-28T18:07:57.656Z,12.10
2023-02-28T18:10:00.294Z,13.80
2023-02-28T18:12:04.239Z,13.20
2023-02-28T18:14:06.764Z,13.95
2023-02-28T18:16:10.247Z,13.80
2023-02-28T18:18:12.841Z,13.90
2023-02-28T18:20:15.775Z,12.82
2023-02-28T18:22:18.579Z,13.48
2023-02-28T18:24:23.009Z,12.98
2023-02-28T18:26:25.851Z,12.55
2023-02-28T18:28:29.747Z,12.73
2023-02-28T18:30:34.286Z,13.45
2023-02-28T18:32:36.835Z,12.20
2023-02-28T18:34:39.498Z,13.05
2023-02-28T18:36:42.962Z,12.98
2023-02-28T18:38:46.027Z,13.40
2023-02-28T18:40:53.951Z,13.45
2023-02-28T18:42:56.593Z,14.10
2023-02-28T18:45:00.484Z,13.45
2023-02-28T18:47:03.116Z,13.95
2023-02-28T18:49:06.253Z,12.35
2023-02-28T18:51:09.795Z,13.73
2023-02-28T18:53:12.428Z,13.35
2023-02-28T18:55:18.655Z,13.82
2023-02-28T18:57:21.233Z,16.58
2023-02-28T18:59:24.215Z,14.20
2023-02-28T19:01:31.148Z,15.27
2023-02-28T19:03:33.961Z,15.93
2023-02-28T19:05:38.098Z,15.18
2023-02-28T19:07:40.877Z,15.18
2023-02-28T19:09:43.412Z,15.63
2023-02-28T19:11:46.037Z,16.25
2023-02-28T19:13:48.783Z,14.82
2023-02-28T19:15:56.234Z,15.57
2023-02-28T19:18:00.839Z,15.88
2023-02-28T19:20:03.417Z,16.13
2023-02-28T19:22:06.038Z,16.58
2023-02-28T19:24:08.684Z,16.27
2023-02-28T19:26:13.196Z,17.33
2023-02-28T19:28:15.768Z,17.67
2023-02-28T19:30:18.653Z,17.17
2023-02-28T19:32:22.413Z,15.73
2023-02-28T19:34:26.450Z,15.70
2023-02-28T19:36:29.053Z,17.40
2023-02-28T19:38:31.732Z,18.27
2023-02-28T19:40:34.280Z,17.38
2023-02-28T19:42:37.005Z,14.82
2023-02-28T19:44:39.670Z,16.42
2023-02-28T19:46:42.243Z,17.25
2023-02-28T19:48:44.951Z,17.92
2023-02-28T19:50:48.894Z,16.70
2023-02-28T19:52:51.517Z,17.05
2023-02-28T19:54:54.045Z,16.05
2023-02-28T19:56:58.366Z,16.40
2023-02-28T19:59:00.911Z,15.73
2023-02-28T20:01:08.346Z,16.67
2023-02-28T20:03:10.933Z,16.25
2023-02-28T20:05:13.499Z,15.93
2023-02-28T20:07:20.244Z,16.80
2023-02-28T20:09:23.005Z,16.85
2023-02-28T20:11:25.758Z,16.27
2023-02-28T20:13:28.722Z,16.10
2023-02-28T20:15:32.309Z,15.93
2023-02-28T20:17:34.920Z,15.90
2023-02-28T20:19:37.957Z,15.85
2023-02-28T20:21:41.283Z,15.95
2023-02-28T20:23:48.524Z,16.88
2023-02-28T20:25:51.748Z,17.05
2023-02-28T20:27:54.316Z,17.75
2023-02-28T20:29:56.933Z,15.70
2023-02-28T20:31:59.567Z,16.75
2023-02-28T20:34:02.135Z,15.98
2023-02-28T20:36:06.240Z,16.85
2023-02-28T20:38:08.946Z,17.35
2023-02-28T20:40:14.411Z,17.15
2023-02-28T20:42:16.972Z,16.45
2023-02-28T20:44:19.733Z,16.83
2023-02-28T20:46:22.397Z,18.38
2023-02-28T20:48:25.573Z,17.75
2023-02-28T20:50:28.161Z,16.65
2023-02-28T20:52:30.705Z,18.67
2023-02-28T20:54:33.277Z,18.05
2023-02-28T20:56:37.200Z,19.15
2023-02-28T20:58:39.834Z,19.30
2023-02-28T21:00:45.073Z,18.00
2023-02-28T21:02:47.638Z,18.10
2023-02-28T21:04:50.223Z,18.90
2023-02-28T21:06:53.376Z,17.73
2023-02-28T21:08:56.792Z,18.60
2023-02-28T21:10:59.346Z,19.90
2023-02-28T21:13:03.237Z,18.70
2023-02-28T21:15:06.466Z,17.13
2023-02-28T21:17:10.403Z,18.48
2023-02-28T21:19:13.557Z,18.42
2023-02-28T21:21:18.131Z,17.83
2023-02-28T21:23:20.938Z,17.95
2023-02-28T21:25:23.538Z,17.13
2023-02-28T21:27:26.100Z,17.83
2023-02-28T21:29:30.008Z,17.85
2023-02-28T21:31:35.512Z,18.05
2023-02-28T21:33:38.134Z,17.58
2023-02-28T21:35:40.757Z,19.35
2023-02-28T21:37:44.024Z,19.23
2023-02-28T21:39:47.288Z,19.95
2023-02-28T21:41:49.931Z,18.85
2023-02-28T21:43:53.201Z,18.48
2023-02-28T21:45:57.145Z,20.90
2023-02-28T21:47:59.985Z,19.38
2023-02-28T21:50:02.586Z,20.00
2023-02-28T21:52:05.271Z,19.23
2023-02-28T21:54:07.832Z,19.40
2023-02-28T21:56:14.322Z,19.25
2023-02-28T21:58:17.146Z,18.58
2023-02-28T22:00:20.770Z,18.33
2023-02-28T22:02:24.668Z,19.25
2023-02-28T22:04:27.267Z,20.42
2023-02-28T22:06:34.440Z,19.30
2023-02-28T22:08:37.022Z,18.67
2023-02-28T22:10:39.555Z,19.00
2023-02-28T22:12:42.092Z,19.55
2023-02-28T22:14:46.162Z,19.63
2023-02-28T22:16:53.313Z,18.88
2023-02-28T22:18:59.197Z,20.05
2023-02-28T22:21:01.842Z,20.27
2023-02-28T22:23:04.401Z,19.60
2023-02-28T22:25:09.561Z,20.20
2023-02-28T22:27:12.188Z,20.50
2023-02-28T22:29:14.763Z,19.00
2023-02-28T22:31:18.800Z,19.05
2023-02-28T22:33:21.368Z,20.10
2023-02-28T22:35:25.288Z,19.58
2023-02-28T22:37:27.857Z,20.10
2023-02-28T22:39:30.403Z,20.40
2023-02-28T22:41:33.174Z,20.50
2023-02-28T22:43:36.014Z,19.98
2023-02-28T22:45:39.655Z,20.42
2023-02-28T22:47:42.246Z,19.77
2023-02-28T22:49:44.924Z,21.00
2023-02-28T22:51:48.857Z,21.08
2023-02-28T22:53:52.810Z,20.58
2023-02-28T22:55:56.284Z,18.38
2023-02-28T22:58:00.045Z,20.35
2023-02-28T23:00:02.837Z,19.95
2023-02-28T23:02:05.420Z,19.77
2023-02-28T23:04:08.103Z,19.40
2023-02-28T23:06:16.197Z,18.38
2023-02-28T23:08:22.337Z,19.48
2023-02-28T23:10:24.874Z,20.02
2023-02-28T23:12:27.612Z,19.23
2023-02-28T23:14:30.166Z,19.85
2023-02-28T23:16:38.714Z,19.30
2023-02-28T23:18:41.342Z,20.27
2023-02-28T23:20:43.911Z,20.80
2023-02-28T23:22:50.457Z,20.90
2023-02-28T23:24:54.464Z,20.63
2023-02-28T23:26:59.232Z,21.17
2023-02-28T23:29:01.780Z,20.02
2023-02-28T23:31:05.187Z,20.48
2023-02-28T23:33:07.854Z,19.98
2023-02-28T23:35:11.785Z,18.88
2023-02-28T23:37:14.357Z,19.92
2023-02-28T23:39:18.595Z,20.80
2023-02-28T23:41:23.570Z,19.35
2023-02-28T23:43:26.168Z,20.25
2023-02-28T23:45:28.806Z,19.52
2023-02-28T23:47:32.473Z,19.50
2023-02-28T23:49:35.177Z,20.27
2023-02-28T23:51:37.937Z,19.10
2023-02-28T23:53:43.614Z,19.02
2023-02-28T23:55:48.056Z,18.52
2023-02-28T23:57:51.956Z,18.88
2023-02-28T23:59:54.837Z,19.13
